Portada
METAR-TAF:

METAR-TAF

Aeroports :

Türkmenabat, Turkmenistan

latitud: 39-05-00N, longitud: 063-36-48E, altitud: 192 m

Observació

L'informe es va fer fa 45 minuts, a les 08:00 UTC
Vent 6 kt del Nord/Nord-Oest
Temperatura 40°C
Humitat 8%
Pressió 1007 hPa
Visibilitat: 9000 m

METAR: UTAV 020800Z 34006KT 9000 NSC 40/00 Q1007 R31/CLRD70 NOSIG

Hora: 13:45 (08:45 UTC)

Pronòstic

L'informe es va fer fa 4 hores i 15 minuts, a les 04:30 UTC
Pronòstic vàlid del 02 a les 06 UTC al 03 a les 06 UTC
Vent 14 kt del Nord/Nord-Oest
Visibilitat: 6000 m
Temporalment
l' 02 a les 06 UTC al 02 a les 12 UTC
Vent 14 kt del Nord-Est amb ràfegues de 24 kt
Visibilitat: 3000 m
torb baixa de pols

TAF: UTAV 020430Z 0206/0306 34014KT 6000 NSC TEMPO 0206/0212 04014G24KT 3000 DRDU

Observacions i pronòstics meteorològics de més de 4000 aeroports (METAR i TAF).

Les estacions disponibles són els punts grocs i vermells al mapa.

Posi el ratolí al punt desitjat per veure el nom de l'estació.

Feu clic per veure les observacions i els pronòstics meteorològics.

Per canviar el mapa: feu clic els botons verds amb una creu de color negre per apropar; al botó verd amb un guió per allunyar la imatge; o en les fletxes verdes per a mapes adjacents.


METAR-TAF: